createdAt,value
2023-02-27T00:02:23.306Z,101315.63
2023-02-27T00:06:24.887Z,101322.78
2023-02-27T00:10:26.551Z,101324.88
2023-02-27T00:14:28.329Z,101325.78
2023-02-27T00:18:30.008Z,101328.16
2023-02-27T00:22:31.724Z,101320.31
2023-02-27T00:26:33.279Z,101323.44
2023-02-27T00:30:34.923Z,101309.22
2023-02-27T00:34:36.537Z,101311.72
2023-02-27T00:38:38.129Z,101323.72
2023-02-27T00:42:39.753Z,101320.81
2023-02-27T00:46:42.341Z,101318.16
2023-02-27T00:50:44.281Z,101314.00
2023-02-27T00:54:45.918Z,101324.06
2023-02-27T00:58:47.577Z,101306.59
2023-02-27T01:02:49.302Z,101316.03
2023-02-27T01:06:50.887Z,101318.06
2023-02-27T01:10:55.822Z,101316.59
2023-02-27T01:14:57.317Z,101316.44
2023-02-27T01:18:58.964Z,101314.69
2023-02-27T01:23:00.579Z,101316.31
2023-02-27T01:27:02.157Z,101310.84
2023-02-27T01:31:04.342Z,101307.31
2023-02-27T01:35:07.256Z,101308.84
2023-02-27T01:39:09.175Z,101311.06
2023-02-27T01:43:21.630Z,101294.94
2023-02-27T01:47:23.283Z,101296.91
2023-02-27T01:51:26.276Z,101295.88
2023-02-27T01:55:31.160Z,101294.59
2023-02-27T01:59:34.844Z,101290.91
2023-02-27T02:03:54.108Z,101287.81
2023-02-27T02:07:56.749Z,101296.91
2023-02-27T02:11:59.415Z,101304.03
2023-02-27T02:16:15.922Z,101295.19
2023-02-27T02:20:59.773Z,101298.78
2023-02-27T02:25:30.116Z,101301.63
2023-02-27T02:29:48.007Z,101297.06
2023-02-27T02:34:17.803Z,101307.88
2023-02-27T02:38:28.050Z,101298.25
2023-02-27T02:42:49.158Z,101305.22
2023-02-27T02:46:56.832Z,101298.16
2023-02-27T02:51:01.176Z,101299.78
2023-02-27T02:55:24.323Z,101302.28
2023-02-27T02:59:32.234Z,101297.09
2023-02-27T03:04:03.613Z,101312.81
2023-02-27T03:08:11.591Z,101313.13
2023-02-27T03:12:18.557Z,101304.16
2023-02-27T03:16:20.110Z,101307.41
2023-02-27T03:20:29.686Z,101303.13
2023-02-27T03:24:37.901Z,101311.56
2023-02-27T03:28:46.479Z,101306.53
2023-02-27T03:32:56.803Z,101315.97
2023-02-27T03:37:23.753Z,101329.31
2023-02-27T03:41:30.617Z,101327.41
2023-02-27T03:46:16.057Z,101337.59
2023-02-27T03:50:18.137Z,101340.25
2023-02-27T03:54:29.780Z,101337.00
2023-02-27T03:58:31.514Z,101343.22
2023-02-27T04:02:33.681Z,101354.28
2023-02-27T04:06:56.776Z,101350.75
2023-02-27T04:11:19.363Z,101347.81
2023-02-27T04:15:55.091Z,101358.63
2023-02-27T04:20:04.873Z,101358.78
2023-02-27T04:24:27.636Z,101362.66
2023-02-27T04:28:41.638Z,101364.31
2023-02-27T04:32:48.389Z,101365.91
2023-02-27T04:36:57.254Z,101370.53
2023-02-27T04:41:17.246Z,101364.19
2023-02-27T04:45:21.216Z,101364.78
2023-02-27T04:49:34.797Z,101375.44
2023-02-27T04:53:56.391Z,101375.16
2023-02-27T04:58:03.781Z,101377.50
2023-02-27T05:02:12.234Z,101383.44
2023-02-27T05:06:17.406Z,101387.13
2023-02-27T05:10:31.837Z,101389.19
2023-02-27T05:15:02.180Z,101384.16
2023-02-27T05:19:04.761Z,101394.81
2023-02-27T05:23:47.980Z,101387.88
2023-02-27T05:27:56.493Z,101392.59
2023-02-27T05:32:09.145Z,101390.94
2023-02-27T05:36:17.276Z,101383.00
2023-02-27T05:40:23.866Z,101392.88
2023-02-27T05:44:38.516Z,101394.53
2023-02-27T05:48:46.023Z,101382.84
2023-02-27T05:52:49.369Z,101388.63
2023-02-27T05:56:54.160Z,101403.53
2023-02-27T06:00:55.724Z,101391.84
2023-02-27T06:04:57.270Z,101407.53
2023-02-27T06:08:58.949Z,101404.88
2023-02-27T06:13:00.675Z,101400.00
2023-02-27T06:17:02.286Z,101406.63
2023-02-27T06:21:04.539Z,101411.09
2023-02-27T06:25:06.648Z,101401.03
2023-02-27T06:29:08.239Z,101408.44
2023-02-27T06:33:12.316Z,101420.72
2023-02-27T06:37:13.894Z,101426.63
2023-02-27T06:41:15.762Z,101431.94
2023-02-27T06:45:17.753Z,101428.66
2023-02-27T06:49:19.257Z,101435.66
2023-02-27T06:53:20.919Z,101427.22
2023-02-27T06:57:22.568Z,101431.53
2023-02-27T07:01:26.279Z,101433.41
2023-02-27T07:05:27.832Z,101452.22
2023-02-27T07:09:29.375Z,101444.38
2023-02-27T07:13:30.906Z,101460.03
2023-02-27T07:17:32.478Z,101465.53
2023-02-27T07:21:34.239Z,101464.94
2023-02-27T07:25:35.807Z,101461.66
2023-02-27T07:29:37.416Z,101470.66
2023-02-27T07:33:39.057Z,101476.41
2023-02-27T07:37:40.614Z,101467.69
2023-02-27T07:41:42.222Z,101473.28
2023-02-27T07:45:51.751Z,101466.44
2023-02-27T07:49:53.570Z,101472.66
2023-02-27T07:53:57.769Z,101475.72
2023-02-27T07:57:59.285Z,101466.53
2023-02-27T08:02:00.880Z,101472.56
2023-02-27T08:06:02.677Z,101470.28
2023-02-27T08:10:05.170Z,101469.47
2023-02-27T08:14:07.297Z,101474.63
2023-02-27T08:18:08.878Z,101463.88
2023-02-27T08:22:11.840Z,101458.19
2023-02-27T08:26:14.195Z,101460.19
2023-02-27T08:30:17.025Z,101459.50
2023-02-27T08:34:18.755Z,101448.22
2023-02-27T08:38:20.828Z,101451.09
2023-02-27T08:42:22.399Z,101449.94
2023-02-27T08:46:24.070Z,101449.59
2023-02-27T08:50:25.558Z,101448.00
2023-02-27T08:54:27.867Z,101454.78
2023-02-27T08:58:29.381Z,101458.09
2023-02-27T09:02:30.952Z,101456.38
2023-02-27T09:06:34.735Z,101456.41
2023-02-27T09:10:36.534Z,101455.66
2023-02-27T09:14:39.992Z,101463.28
2023-02-27T09:18:41.497Z,101463.78
2023-02-27T09:22:43.138Z,101464.06
2023-02-27T09:26:46.419Z,101463.31
2023-02-27T09:30:48.293Z,101463.19
2023-02-27T09:34:49.885Z,101474.97
2023-02-27T09:38:51.472Z,101470.81
2023-02-27T09:42:58.001Z,101481.53
2023-02-27T09:46:59.695Z,101484.56
2023-02-27T09:51:01.623Z,101490.25
2023-02-27T09:55:10.798Z,101479.97
2023-02-27T09:59:36.023Z,101483.63
2023-02-27T10:04:08.835Z,101485.63
2023-02-27T10:08:22.599Z,101495.38
2023-02-27T10:12:52.960Z,101492.44
2023-02-27T10:16:56.653Z,101485.81
2023-02-27T10:21:07.508Z,101502.50
2023-02-27T10:25:30.783Z,101502.00
2023-02-27T10:29:36.596Z,101511.31
2023-02-27T10:33:40.868Z,101515.94
2023-02-27T10:37:47.960Z,101507.16
2023-02-27T10:41:50.325Z,101509.03
2023-02-27T10:45:53.230Z,101506.88
2023-02-27T10:49:55.252Z,101509.19
2023-02-27T10:54:23.401Z,101504.91
2023-02-27T10:58:25.244Z,101512.09
2023-02-27T11:02:38.107Z,101515.63
2023-02-27T11:06:41.844Z,101501.72
2023-02-27T11:10:58.994Z,101497.66
2023-02-27T11:15:25.619Z,101505.63
2023-02-27T11:19:30.562Z,101500.59
2023-02-27T11:23:33.876Z,101496.00
2023-02-27T11:27:35.434Z,101489.56
2023-02-27T11:31:38.438Z,101485.72
2023-02-27T11:35:40.153Z,101488.34
2023-02-27T11:39:50.431Z,101487.16
2023-02-27T11:43:53.135Z,101482.41
2023-02-27T11:48:01.313Z,101482.38
2023-02-27T11:52:12.244Z,101470.56
2023-02-27T11:56:19.797Z,101468.81
2023-02-27T12:00:33.482Z,101463.63
2023-02-27T12:04:58.722Z,101460.88
2023-02-27T12:09:05.965Z,101462.63
2023-02-27T12:13:24.474Z,101459.97
2023-02-27T12:17:40.008Z,101446.22
2023-02-27T12:21:46.361Z,101446.09
2023-02-27T12:26:42.076Z,101432.59
2023-02-27T12:30:51.676Z,101425.56
2023-02-27T12:35:05.350Z,101427.69
2023-02-27T12:39:19.041Z,101419.00
2023-02-27T12:43:50.530Z,101414.44
2023-02-27T12:48:02.220Z,101411.81
2023-02-27T12:52:26.820Z,101408.19
2023-02-27T12:56:42.211Z,101403.88
2023-02-27T13:01:19.282Z,101392.03
2023-02-27T13:05:29.728Z,101398.72
2023-02-27T13:09:43.433Z,101410.06
2023-02-27T13:13:50.090Z,101397.50
2023-02-27T13:18:01.480Z,101400.03
2023-02-27T13:22:11.816Z,101388.59
2023-02-27T13:26:27.106Z,101382.34
2023-02-27T13:30:39.357Z,101404.50
2023-02-27T13:34:45.259Z,101403.16
2023-02-27T13:38:49.214Z,101391.63
2023-02-27T13:42:53.202Z,101391.03
2023-02-27T13:46:54.734Z,101386.44
2023-02-27T13:50:56.399Z,101394.81
2023-02-27T13:55:06.241Z,101403.56
2023-02-27T13:59:26.225Z,101401.25
2023-02-27T14:03:32.037Z,101400.34
2023-02-27T14:07:50.078Z,101409.78
2023-02-27T14:11:55.602Z,101409.72
2023-02-27T14:15:57.940Z,101400.50
2023-02-27T14:19:59.725Z,101403.47
2023-02-27T14:24:01.328Z,101394.19
2023-02-27T14:28:04.235Z,101403.22
2023-02-27T14:32:08.017Z,101394.56
2023-02-27T14:36:16.966Z,101402.84
2023-02-27T14:40:30.102Z,101402.94
2023-02-27T14:44:43.759Z,101400.72
2023-02-27T14:48:45.526Z,101401.72
2023-02-27T14:52:47.051Z,101395.09
2023-02-27T14:57:01.336Z,101391.66
2023-02-27T15:01:09.841Z,101390.47
2023-02-27T15:05:16.762Z,101383.44
2023-02-27T15:09:36.778Z,101399.38
2023-02-27T15:13:39.784Z,101397.69
2023-02-27T15:17:43.578Z,101409.44
2023-02-27T15:21:53.225Z,101407.47
2023-02-27T15:25:57.217Z,101406.50
2023-02-27T15:30:00.484Z,101415.00
2023-02-27T15:34:03.108Z,101410.72
2023-02-27T15:38:05.023Z,101411.41
2023-02-27T15:42:07.016Z,101404.91
2023-02-27T15:46:08.628Z,101421.34
2023-02-27T15:50:16.127Z,101432.53
2023-02-27T15:54:21.566Z,101428.75
2023-02-27T15:58:25.924Z,101429.84
2023-02-27T16:02:40.041Z,101434.25
2023-02-27T16:06:49.201Z,101433.72
2023-02-27T16:10:52.002Z,101444.31
2023-02-27T16:15:17.442Z,101446.09
2023-02-27T16:19:28.168Z,101446.19
2023-02-27T16:23:31.866Z,101457.03
2023-02-27T16:27:33.621Z,101463.19
2023-02-27T16:31:40.615Z,101464.06
2023-02-27T16:35:42.283Z,101480.72
2023-02-27T16:39:43.838Z,101476.81
2023-02-27T16:43:47.033Z,101490.81
2023-02-27T16:47:50.151Z,101474.78
2023-02-27T16:51:52.067Z,101500.09
2023-02-27T16:55:55.001Z,101493.28
2023-02-27T16:59:57.270Z,101504.38
2023-02-27T17:03:59.715Z,101510.88
2023-02-27T17:08:01.541Z,101507.97
2023-02-27T17:12:03.264Z,101513.44
2023-02-27T17:16:06.250Z,101521.94
2023-02-27T17:20:09.215Z,101521.28
2023-02-27T17:24:10.758Z,101526.59
2023-02-27T17:28:12.584Z,101534.84
2023-02-27T17:32:14.112Z,101537.97
2023-02-27T17:36:15.827Z,101543.91
2023-02-27T17:40:17.658Z,101544.56
2023-02-27T17:44:19.404Z,101560.31
2023-02-27T17:48:20.981Z,101555.88
2023-02-27T17:52:22.880Z,101567.44
2023-02-27T17:56:24.413Z,101562.78
2023-02-27T18:00:26.241Z,101575.69
2023-02-27T18:04:27.926Z,101584.34
2023-02-27T18:08:29.748Z,101592.31
2023-02-27T18:12:31.469Z,101594.38
2023-02-27T18:16:33.456Z,101592.09
2023-02-27T18:20:34.993Z,101597.53
2023-02-27T18:24:38.032Z,101591.09
2023-02-27T18:28:39.614Z,101607.28
2023-02-27T18:32:42.521Z,101608.69
2023-02-27T18:36:44.095Z,101609.06
2023-02-27T18:40:45.912Z,101613.13
2023-02-27T18:44:48.207Z,101605.03
2023-02-27T18:48:50.477Z,101613.88
2023-02-27T18:52:52.566Z,101613.00
2023-02-27T18:56:54.254Z,101605.88
2023-02-27T19:00:55.989Z,101615.75
2023-02-27T19:04:57.622Z,101615.75
2023-02-27T19:15:51.049Z,101616.25
2023-02-27T19:19:53.477Z,101616.38
2023-02-27T19:23:55.492Z,101617.63
2023-02-27T19:27:58.037Z,101614.22
2023-02-27T19:31:59.683Z,101614.84
2023-02-27T19:36:09.134Z,101621.28
2023-02-27T19:40:11.259Z,101615.34
2023-02-27T19:44:13.095Z,101616.75
2023-02-27T19:48:18.921Z,101618.03
2023-02-27T19:52:20.608Z,101617.66
2023-02-27T19:56:27.507Z,101608.66
2023-02-27T20:00:29.688Z,101613.34
2023-02-27T20:04:32.809Z,101615.53
2023-02-27T20:08:35.311Z,101614.75
2023-02-27T20:12:37.151Z,101610.31
2023-02-27T20:16:40.226Z,101609.19
2023-02-27T20:20:42.662Z,101615.00
2023-02-27T20:24:44.755Z,101610.56
2023-02-27T20:28:47.968Z,101604.75
2023-02-27T20:32:49.701Z,101611.69
2023-02-27T20:36:52.587Z,101606.75
2023-02-27T20:40:57.633Z,101599.81
2023-02-27T20:44:59.433Z,101595.50
2023-02-27T20:49:03.936Z,101597.66
2023-02-27T20:53:05.852Z,101597.66
2023-02-27T20:57:07.847Z,101601.22
2023-02-27T21:01:11.495Z,101606.41
2023-02-27T21:05:13.466Z,101605.75
2023-02-27T21:09:15.301Z,101603.97
2023-02-27T21:13:18.377Z,101613.59
2023-02-27T21:17:20.123Z,101609.66
2023-02-27T21:21:28.551Z,101614.69
2023-02-27T21:25:30.486Z,101618.38
2023-02-27T21:29:32.313Z,101615.44
2023-02-27T21:33:34.238Z,101611.25
2023-02-27T21:37:35.970Z,101613.56
2023-02-27T21:41:38.150Z,101613.94
2023-02-27T21:45:46.058Z,101612.06
2023-02-27T21:49:47.834Z,101603.19
2023-02-27T21:53:54.426Z,101608.25
2023-02-27T21:57:56.983Z,101600.19
2023-02-27T22:01:58.779Z,101595.38
2023-02-27T22:06:02.139Z,101587.78
2023-02-27T22:10:04.189Z,101586.13
2023-02-27T22:14:07.442Z,101588.91
2023-02-27T22:18:09.466Z,101581.31
2023-02-27T22:22:11.264Z,101593.88
2023-02-27T22:26:15.664Z,101598.53
2023-02-27T22:30:17.624Z,101592.09
2023-02-27T22:34:19.489Z,101593.97
2023-02-27T22:38:21.126Z,101585.09
2023-02-27T22:42:23.621Z,101593.66
2023-02-27T22:46:31.660Z,101577.31
2023-02-27T22:50:33.313Z,101584.63
2023-02-27T22:54:34.945Z,101576.25
2023-02-27T22:58:38.941Z,101579.00
2023-02-27T23:02:41.300Z,101579.34
2023-02-27T23:06:43.930Z,101567.44
2023-02-27T23:10:45.931Z,101584.59
2023-02-27T23:14:47.604Z,101587.63
2023-02-27T23:18:51.977Z,101584.69
2023-02-27T23:22:53.600Z,101582.34
2023-02-27T23:26:56.062Z,101589.81
2023-02-27T23:30:59.485Z,101590.69
2023-02-27T23:35:01.126Z,101582.00
2023-02-27T23:39:03.800Z,101589.56
2023-02-27T23:43:05.411Z,101587.81
2023-02-27T23:47:07.688Z,101592.75
2023-02-27T23:51:11.179Z,101590.69
2023-02-27T23:55:12.803Z,101585.66
2023-02-27T23:59:14.430Z,101596.97
